Time;durP1;ratioP1;P1;durP2;ratioP2;P2;SDS_P1;SDS_P2;PMS_P1;PMS_P2;Temp;Humidity;BMP_temperature;BMP_pressure;BME280_temperature;BME280_humidity;BME280_pressure;Samples;Min_cycle;Max_cycle;Signal;HPM_P1;HPM_P2
2023/01/30 00:01:04;;;;;;;15.18;10.68;;;7.30;99.90;;;;;;5096872;28;20158;-70
2023/01/30 00:03:30;;;;;;;19.05;11.48;;;7.30;99.90;;;;;;5096832;28;20047;-71
2023/01/30 00:05:56;;;;;;;16.13;11.20;;;7.30;99.90;;;;;;5097332;28;20109;-71
2023/01/30 00:08:22;;;;;;;15.90;10.30;;;7.30;99.90;;;;;;5095905;28;20046;-71
2023/01/30 00:10:47;;;;;;;14.45;9.32;;;7.40;99.90;;;;;;5097781;28;20872;-71
2023/01/30 00:13:14;;;;;;;15.35;10.88;;;7.40;99.90;;;;;;5095231;28;20052;-71
2023/01/30 00:15:41;;;;;;;19.48;11.65;;;7.40;99.90;;;;;;5098226;28;20082;-71
2023/01/30 00:18:07;;;;;;;14.95;9.65;;;7.40;99.90;;;;;;5087424;28;20052;-71
2023/01/30 00:20:33;;;;;;;15.55;10.88;;;7.40;99.90;;;;;;5092976;28;20051;-70
2023/01/30 00:22:59;;;;;;;14.20;9.05;;;7.50;99.90;;;;;;5098292;28;20057;-72
2023/01/30 00:25:26;;;;;;;19.20;10.00;;;7.50;99.90;;;;;;5092733;28;20051;-70
2023/01/30 00:27:51;;;;;;;15.82;10.07;;;7.50;99.90;;;;;;5100047;28;20123;-71
2023/01/30 00:30:17;;;;;;;20.20;11.27;;;7.50;99.90;;;;;;5093115;28;20074;-69
2023/01/30 00:32:43;;;;;;;12.52;9.63;;;7.50;99.90;;;;;;5091845;28;20079;-70
2023/01/30 00:35:09;;;;;;;14.18;9.18;;;7.50;99.90;;;;;;5091723;28;20580;-69
2023/01/30 00:37:34;;;;;;;13.60;8.52;;;7.50;99.90;;;;;;5087577;28;20140;-70
2023/01/30 00:40:00;;;;;;;19.42;9.02;;;7.50;99.90;;;;;;5091053;28;20506;-70
2023/01/30 00:47:55;;;;;;;10.98;7.30;;;7.60;99.90;;;;;;5079914;28;20059;-70
2023/01/30 00:50:21;;;;;;;12.05;7.75;;;7.70;99.90;;;;;;5087911;28;20140;-69
2023/01/30 00:52:47;;;;;;;13.82;7.55;;;7.60;99.90;;;;;;5095540;28;20056;-73
2023/01/30 00:55:14;;;;;;;11.65;7.57;;;7.60;99.90;;;;;;5098544;28;20039;-70
2023/01/30 00:57:40;;;;;;;11.27;7.97;;;7.60;99.90;;;;;;5097343;28;20083;-70
2023/01/30 01:00:08;;;;;;;12.55;8.70;;;7.60;99.90;;;;;;5084796;28;20130;-69
2023/01/30 01:02:34;;;;;;;14.10;8.65;;;7.60;99.90;;;;;;5090964;28;20055;-70
2023/01/30 01:05:00;;;;;;;10.23;6.75;;;7.50;99.90;;;;;;5077626;28;20055;-69
2023/01/30 01:07:26;;;;;;;12.75;8.68;;;7.50;99.90;;;;;;5080324;28;20052;-70
2023/01/30 01:09:51;;;;;;;11.60;7.60;;;7.40;99.90;;;;;;5060270;28;20405;-71
2023/01/30 01:12:18;;;;;;;14.07;8.55;;;7.40;99.90;;;;;;5078011;28;20047;-70
2023/01/30 01:14:44;;;;;;;9.38;6.97;;;7.40;99.90;;;;;;5079695;28;20098;-70
2023/01/30 01:17:10;;;;;;;10.50;6.30;;;7.40;99.90;;;;;;5079122;28;20155;-71
2023/01/30 01:19:36;;;;;;;14.43;7.20;;;7.30;99.90;;;;;;5096950;28;20051;-69
2023/01/30 01:22:01;;;;;;;14.52;8.10;;;7.30;99.90;;;;;;5099566;28;20059;-71
2023/01/30 01:24:27;;;;;;;11.85;6.32;;;7.30;99.90;;;;;;5086790;28;20048;-70
2023/01/30 01:26:52;;;;;;;7.70;5.53;;;7.30;99.90;;;;;;5100041;28;20051;-71
2023/01/30 01:29:18;;;;;;;10.15;5.93;;;7.30;99.90;;;;;;5096172;28;20043;-70
2023/01/30 01:31:44;;;;;;;8.55;5.88;;;7.30;99.90;;;;;;5116584;28;20048;-72
2023/01/30 01:34:10;;;;;;;8.95;6.18;;;7.20;99.90;;;;;;5097390;28;20108;-70
2023/01/30 01:36:37;;;;;;;8.18;4.80;;;7.30;99.90;;;;;;5087925;28;20459;-69
2023/01/30 01:39:03;;;;;;;6.88;4.63;;;7.20;99.90;;;;;;5096221;28;20055;-70
2023/01/30 01:41:29;;;;;;;6.32;4.60;;;7.20;99.90;;;;;;5099495;28;20100;-70
2023/01/30 01:44:06;;;;;;;7.03;5.00;;;7.20;99.90;;;;;;5081954;28;20093;-71
2023/01/30 01:46:52;;;;;;;7.95;4.07;;;7.20;99.90;;;;;;5083474;28;20534;-70
2023/01/30 01:49:24;;;;;;;7.70;4.80;;;7.20;99.90;;;;;;5085823;28;20060;-70
2023/01/30 01:51:58;;;;;;;6.43;4.00;;;7.20;99.90;;;;;;5086547;28;20040;-69
2023/01/30 01:54:45;;;;;;;4.53;4.07;;;7.30;99.90;;;;;;5092175;28;20050;-69
2023/01/30 01:57:19;;;;;;;6.57;3.75;;;7.30;99.90;;;;;;5095191;28;20052;-72
2023/01/30 01:59:53;;;;;;;5.45;3.97;;;7.20;99.90;;;;;;5085024;28;20051;-71
2023/01/30 02:02:20;;;;;;;6.95;4.70;;;7.30;99.90;;;;;;5099554;28;20051;-70
2023/01/30 02:05:03;;;;;;;6.70;3.80;;;7.30;99.90;;;;;;5065408;28;20148;-71
2023/01/30 02:07:42;;;;;;;5.00;3.47;;;7.30;99.90;;;;;;5095066;28;20074;-69
2023/01/30 02:10:12;;;;;;;7.00;4.35;;;7.30;99.90;;;;;;5089285;28;20734;-69
2023/01/30 02:12:39;;;;;;;10.00;4.00;;;7.30;99.90;;;;;;5102080;28;20122;-71
2023/01/30 02:15:06;;;;;;;5.47;4.18;;;7.40;99.90;;;;;;5102662;28;20123;-71
2023/01/30 02:17:31;;;;;;;7.97;4.53;;;7.40;99.90;;;;;;5101923;28;20070;-71
2023/01/30 02:20:23;;;;;;;8.88;4.70;;;7.40;99.90;;;;;;5094722;28;20542;-72
2023/01/30 02:23:04;;;;;;;7.50;5.05;;;7.40;99.90;;;;;;5051043;28;20147;-72
2023/01/30 02:25:48;;;;;;;9.43;5.25;;;7.50;99.90;;;;;;5100574;28;20047;-70
2023/01/30 02:28:29;;;;;;;12.20;4.88;;;7.50;99.90;;;;;;5094101;28;20450;-70
2023/01/30 02:31:13;;;;;;;6.40;3.72;;;7.50;99.90;;;;;;5089308;28;20039;-71
2023/01/30 02:33:58;;;;;;;8.20;5.35;;;7.50;99.90;;;;;;5099617;28;20051;-73
2023/01/30 02:36:48;;;;;;;9.80;5.15;;;7.50;99.90;;;;;;5102534;28;20128;-72
2023/01/30 02:39:46;;;;;;;7.53;4.72;;;7.50;99.90;;;;;;5090353;28;20047;-71
2023/01/30 02:42:36;;;;;;;13.75;6.35;;;7.50;99.90;;;;;;5098560;28;20113;-72
2023/01/30 02:45:18;;;;;;;7.45;4.78;;;7.50;99.90;;;;;;5100016;28;20051;-71
2023/01/30 02:48:05;;;;;;;12.25;5.30;;;7.50;99.90;;;;;;5084718;28;20047;-71
2023/01/30 02:50:37;;;;;;;7.30;4.38;;;7.50;99.90;;;;;;5083410;28;20056;-72
2023/01/30 02:53:04;;;;;;;17.10;6.20;;;7.50;99.90;;;;;;5086016;28;20052;-71
2023/01/30 02:55:30;;;;;;;9.05;5.18;;;7.60;99.90;;;;;;5092914;28;20619;-72
2023/01/30 02:57:56;;;;;;;13.63;5.40;;;7.60;99.90;;;;;;5095234;28;20123;-73
2023/01/30 03:01:02;;;;;;;9.15;5.85;;;7.60;99.90;;;;;;5084124;28;20044;-73
2023/01/30 03:03:55;;;;;;;12.98;5.50;;;7.60;99.90;;;;;;5091292;28;20050;-74
2023/01/30 03:06:43;;;;;;;13.32;5.57;;;7.60;99.90;;;;;;5103109;28;20114;-71
2023/01/30 03:09:47;;;;;;;11.77;6.45;;;7.60;99.90;;;;;;5069855;28;20047;-74
2023/01/30 03:12:30;;;;;;;12.18;5.43;;;7.70;99.90;;;;;;5079168;28;20116;-72
2023/01/30 03:15:04;;;;;;;10.52;6.03;;;7.70;99.90;;;;;;5102499;28;20123;-72
2023/01/30 03:17:31;;;;;;;10.35;4.82;;;7.70;99.90;;;;;;5092265;28;20064;-72
2023/01/30 03:19:58;;;;;;;13.35;6.00;;;7.70;99.90;;;;;;5095162;28;20059;-72
2023/01/30 03:22:24;;;;;;;17.48;7.25;;;7.70;99.90;;;;;;5085792;28;20044;-72
2023/01/30 03:24:52;;;;;;;16.67;5.53;;;7.70;99.90;;;;;;5096083;28;20054;-73
2023/01/30 03:27:18;;;;;;;17.33;6.05;;;7.70;99.90;;;;;;5093999;28;20052;-72
2023/01/30 03:29:44;;;;;;;13.90;4.95;;;7.70;99.90;;;;;;5088546;28;20130;-73
2023/01/30 03:32:10;;;;;;;11.32;4.68;;;7.10;99.90;;;;;;5083158;28;20046;-72
2023/01/30 03:34:36;;;;;;;15.13;5.25;;;7.70;99.90;;;;;;5084101;28;20040;-72
2023/01/30 03:37:02;;;;;;;13.65;5.10;;;7.70;99.90;;;;;;5097354;28;20055;-73
2023/01/30 03:39:28;;;;;;;12.25;6.22;;;7.70;99.90;;;;;;5091293;28;20048;-74
2023/01/30 03:41:54;;;;;;;12.02;4.82;;;7.70;99.90;;;;;;5097588;28;20516;-73
2023/01/30 03:44:20;;;;;;;16.92;5.47;;;7.70;99.90;;;;;;5098385;28;20044;-72
2023/01/30 03:46:45;;;;;;;13.50;5.35;;;7.70;99.90;;;;;;5098004;28;20099;-71
2023/01/30 03:49:11;;;;;;;8.93;4.10;;;7.70;99.90;;;;;;5096480;28;20052;-71
2023/01/30 03:51:37;;;;;;;12.35;4.45;;;7.70;99.90;;;;;;5089782;28;20577;-71
2023/01/30 03:54:03;;;;;;;10.93;4.45;;;7.60;99.90;;;;;;5090345;28;20052;-72
2023/01/30 03:56:29;;;;;;;12.38;4.18;;;7.60;99.90;;;;;;5099947;28;20040;-74
2023/01/30 03:58:55;;;;;;;15.40;4.80;;;7.50;99.90;;;;;;5100438;28;20401;-74
2023/01/30 04:01:21;;;;;;;17.50;5.15;;;7.30;99.90;;;;;;5086845;28;20056;-74
2023/01/30 04:03:47;;;;;;;15.70;4.82;;;7.40;99.90;;;;;;5080299;28;20083;-74
2023/01/30 04:06:12;;;;;;;7.53;3.80;;;7.30;99.90;;;;;;5086308;28;20747;-72
2023/01/30 04:08:38;;;;;;;24.65;5.25;;;7.30;99.90;;;;;;5092427;28;20225;-73
2023/01/30 04:11:04;;;;;;;12.98;5.50;;;7.20;99.90;;;;;;5086485;28;20059;-73
2023/01/30 04:13:29;;;;;;;12.18;4.60;;;7.20;99.90;;;;;;5098762;28;20054;-71
2023/01/30 04:16:17;;;;;;;10.95;5.28;;;7.20;99.90;;;;;;5092737;28;20036;-72
2023/01/30 04:18:43;;;;;;;10.77;4.65;;;7.20;99.90;;;;;;5081929;28;20576;-72
2023/01/30 04:21:09;;;;;;;8.20;5.18;;;7.20;99.90;;;;;;5101266;28;20052;-74
2023/01/30 04:23:35;;;;;;;12.57;5.20;;;7.10;99.90;;;;;;5099351;28;20055;-73
2023/01/30 04:26:00;;;;;;;15.60;5.15;;;7.10;99.90;;;;;;5081515;28;20105;-73
2023/01/30 04:28:26;;;;;;;13.77;5.68;;;7.10;99.90;;;;;;5093981;28;20048;-71
2023/01/30 04:30:52;;;;;;;9.55;4.45;;;7.10;99.90;;;;;;5093125;28;20040;-74
2023/01/30 04:33:18;;;;;;;15.18;4.88;;;7.10;99.90;;;;;;5094618;28;20074;-75
2023/01/30 04:35:54;;;;;;;12.82;4.55;;;7.10;99.90;;;;;;5093471;28;20243;-73
2023/01/30 04:38:20;;;;;;;11.48;4.55;;;7.00;99.90;;;;;;5084008;28;20057;-74
2023/01/30 04:40:55;;;;;;;13.00;4.93;;;7.00;99.90;;;;;;5098703;28;20055;-73
2023/01/30 04:43:23;;;;;;;14.98;6.22;;;7.00;99.90;;;;;;5096155;28;20051;-72
2023/01/30 04:45:49;;;;;;;15.93;5.53;;;7.00;99.90;;;;;;5089743;28;20078;-73
2023/01/30 04:48:16;;;;;;;11.40;4.90;;;7.00;99.90;;;;;;5098506;28;20051;-72
2023/01/30 04:50:43;;;;;;;11.52;4.80;;;7.00;99.90;;;;;;5091938;28;20099;-72
2023/01/30 04:53:10;;;;;;;15.43;5.55;;;7.00;99.90;;;;;;5086773;28;20512;-73
2023/01/30 04:55:36;;;;;;;17.20;4.88;;;7.00;99.90;;;;;;5096502;28;20044;-71
2023/01/30 04:58:02;;;;;;;11.07;3.97;;;7.00;99.90;;;;;;5115741;27;20098;-73
2023/01/30 05:00:28;;;;;;;14.88;5.35;;;7.00;99.90;;;;;;5088264;28;20396;-72
2023/01/30 05:02:54;;;;;;;12.65;5.05;;;7.00;99.90;;;;;;5097173;28;20829;-73
2023/01/30 05:05:22;;;;;;;10.00;4.43;;;7.00;99.90;;;;;;5100765;28;20058;-73
2023/01/30 05:07:48;;;;;;;12.85;4.40;;;6.90;99.90;;;;;;5099526;27;20128;-72
2023/01/30 05:10:14;;;;;;;14.73;4.60;;;6.90;99.90;;;;;;5087855;28;20051;-73
2023/01/30 05:12:40;;;;;;;13.60;4.35;;;6.90;99.90;;;;;;5098502;28;20047;-72
2023/01/30 05:15:06;;;;;;;15.20;4.78;;;6.90;99.90;;;;;;5100299;28;20417;-72
2023/01/30 05:17:32;;;;;;;12.35;4.68;;;6.90;99.90;;;;;;5099713;28;20200;-72
2023/01/30 05:19:58;;;;;;;16.10;5.80;;;6.80;99.90;;;;;;5088647;28;20748;-72
2023/01/30 05:22:24;;;;;;;13.23;4.70;;;6.80;99.90;;;;;;5067847;28;20047;-72
2023/01/30 05:24:49;;;;;;;19.25;6.43;;;6.80;99.90;;;;;;5095517;28;20105;-72
2023/01/30 05:27:15;;;;;;;9.18;4.97;;;6.70;99.90;;;;;;5097739;28;20044;-71
2023/01/30 05:29:41;;;;;;;18.38;6.30;;;6.80;99.90;;;;;;5100049;28;20395;-71
2023/01/30 05:32:06;;;;;;;13.60;5.88;;;6.70;99.90;;;;;;5093243;28;20881;-72
2023/01/30 05:34:32;;;;;;;16.15;5.63;;;6.80;99.90;;;;;;5090823;28;20842;-72
2023/01/30 05:36:58;;;;;;;21.92;6.70;;;6.80;99.90;;;;;;5099366;28;20525;-73
2023/01/30 05:39:23;;;;;;;14.57;5.65;;;6.70;99.90;;;;;;5087734;28;20087;-72
2023/01/30 05:41:49;;;;;;;16.27;5.18;;;6.70;99.90;;;;;;5099271;28;20085;-74
2023/01/30 05:44:15;;;;;;;16.92;5.82;;;6.70;99.90;;;;;;5096876;28;20063;-73
2023/01/30 05:46:41;;;;;;;16.30;5.82;;;6.60;99.90;;;;;;5095722;28;20107;-72
2023/01/30 05:49:06;;;;;;;17.05;5.07;;;6.60;99.90;;;;;;5097077;28;20064;-72
2023/01/30 05:51:32;;;;;;;14.40;5.20;;;6.50;99.90;;;;;;5099366;28;20154;-73
2023/01/30 05:53:58;;;;;;;17.23;5.38;;;6.50;99.90;;;;;;5094182;28;20047;-72
2023/01/30 05:56:23;;;;;;;12.80;5.45;;;6.50;99.90;;;;;;5101914;27;20068;-71
2023/01/30 05:58:51;;;;;;;15.95;5.63;;;6.50;99.90;;;;;;5101931;28;20550;-73
2023/01/30 06:01:17;;;;;;;12.13;5.45;;;6.50;99.90;;;;;;5102648;28;20612;-74
2023/01/30 06:03:43;;;;;;;11.82;5.50;;;6.60;99.90;;;;;;5087599;28;20094;-74
2023/01/30 06:06:11;;;;;;;15.48;5.88;;;6.60;99.90;;;;;;5095765;28;20128;-71
2023/01/30 06:08:36;;;;;;;19.55;6.15;;;6.60;99.90;;;;;;5090856;28;20054;-72
2023/01/30 06:11:07;;;;;;;14.20;5.97;;;6.50;99.90;;;;;;5093583;28;20044;-73
2023/01/30 06:13:34;;;;;;;16.98;6.10;;;6.60;99.90;;;;;;5099988;28;20079;-71
2023/01/30 06:15:59;;;;;;;18.05;6.90;;;6.50;99.90;;;;;;5100576;28;20501;-72
2023/01/30 06:18:26;;;;;;;19.52;5.93;;;6.50;99.90;;;;;;5101835;28;20040;-74
2023/01/30 06:20:52;;;;;;;13.25;7.05;;;6.60;99.90;;;;;;5099354;28;20047;-72
2023/01/30 06:23:19;;;;;;;17.77;6.00;;;6.60;99.90;;;;;;5098978;28;20756;-72
2023/01/30 06:25:46;;;;;;;11.45;6.32;;;6.70;99.90;;;;;;5101384;28;20059;-73
2023/01/30 06:28:13;;;;;;;19.50;6.05;;;6.70;99.90;;;;;;5088652;28;20047;-72
2023/01/30 06:30:39;;;;;;;27.45;6.68;;;6.80;99.90;;;;;;5094437;28;20048;-72
2023/01/30 06:33:05;;;;;;;19.55;6.88;;;6.80;99.90;;;;;;5099632;27;20054;-72
2023/01/30 06:35:31;;;;;;;13.20;5.95;;;6.70;99.90;;;;;;5101426;28;20036;-72
2023/01/30 06:37:57;;;;;;;15.80;6.07;;;6.80;99.90;;;;;;5099194;28;20094;-72
2023/01/30 06:40:23;;;;;;;16.67;6.20;;;6.80;99.90;;;;;;5097041;28;20051;-72
2023/01/30 06:42:49;;;;;;;22.30;7.32;;;6.90;99.90;;;;;;5093969;28;20586;-72
2023/01/30 06:45:17;;;;;;;24.23;6.93;;;6.80;99.90;;;;;;5096817;28;20044;-73
2023/01/30 06:47:52;;;;;;;21.90;5.75;;;6.80;99.90;;;;;;5096691;28;20046;-73
2023/01/30 06:50:20;;;;;;;16.98;6.03;;;6.80;99.90;;;;;;5094914;28;20120;-74
2023/01/30 06:52:47;;;;;;;14.80;5.85;;;6.80;99.90;;;;;;5091977;28;20050;-74
2023/01/30 06:55:15;;;;;;;13.98;5.72;;;6.80;99.90;;;;;;5095655;28;20105;-75
2023/01/30 06:57:41;;;;;;;20.05;6.07;;;6.80;99.90;;;;;;5096603;28;20043;-72
2023/01/30 07:00:10;;;;;;;12.85;5.50;;;6.80;99.90;;;;;;5096400;28;20082;-73
2023/01/30 07:02:36;;;;;;;18.70;5.97;;;6.90;99.90;;;;;;5094785;28;20047;-73
2023/01/30 07:05:04;;;;;;;16.17;6.22;;;6.90;99.90;;;;;;5097512;28;20087;-75
2023/01/30 07:07:30;;;;;;;24.13;7.05;;;6.90;99.90;;;;;;5097271;28;20047;-73
2023/01/30 07:09:57;;;;;;;11.15;5.35;;;6.90;99.90;;;;;;5092374;28;20123;-72
2023/01/30 07:12:24;;;;;;;19.02;6.95;;;6.90;99.90;;;;;;5095625;28;20050;-73
2023/01/30 07:14:51;;;;;;;20.80;6.05;;;6.90;99.90;;;;;;5098915;28;20043;-75
2023/01/30 07:17:16;;;;;;;16.55;5.95;;;6.90;99.90;;;;;;5098650;28;20151;-73
2023/01/30 07:19:43;;;;;;;18.88;7.78;;;7.00;99.90;;;;;;5096429;28;20043;-74
2023/01/30 07:22:09;;;;;;;21.38;6.07;;;7.00;99.90;;;;;;5096792;28;20052;-73
2023/01/30 07:24:34;;;;;;;15.63;6.15;;;7.00;99.90;;;;;;5097384;28;20726;-75
2023/01/30 07:27:00;;;;;;;18.23;6.63;;;7.00;99.90;;;;;;5098928;28;20044;-73
2023/01/30 07:29:26;;;;;;;14.30;6.20;;;7.00;99.90;;;;;;5097806;28;20050;-75
2023/01/30 07:31:51;;;;;;;15.57;5.50;;;7.00;99.90;;;;;;5098733;28;20047;-74
2023/01/30 07:34:17;;;;;;;16.17;5.65;;;7.00;99.90;;;;;;5099290;28;20845;-73
2023/01/30 07:36:43;;;;;;;16.02;6.00;;;7.00;99.90;;;;;;5100500;28;20044;-74
2023/01/30 07:39:08;;;;;;;20.98;6.40;;;7.10;99.90;;;;;;5097847;28;20047;-74
2023/01/30 07:41:35;;;;;;;12.90;5.13;;;7.10;99.90;;;;;;5096678;28;20122;-75
2023/01/30 07:44:01;;;;;;;14.20;6.97;;;7.10;99.90;;;;;;5098206;28;20047;-73
2023/01/30 07:46:33;;;;;;;26.52;7.30;;;7.10;99.90;;;;;;5093871;28;20079;-72
2023/01/30 07:49:03;;;;;;;15.75;5.63;;;7.10;99.90;;;;;;5099910;28;20063;-75
2023/01/30 07:51:29;;;;;;;17.70;5.78;;;7.10;99.90;;;;;;5096094;28;20060;-75
2023/01/30 07:53:55;;;;;;;17.38;5.68;;;7.10;99.90;;;;;;5094347;28;20074;-71
2023/01/30 07:56:21;;;;;;;18.73;6.25;;;7.10;99.90;;;;;;5092980;28;20123;-72
2023/01/30 07:58:47;;;;;;;19.88;5.80;;;7.10;99.90;;;;;;5099311;28;20043;-71
2023/01/30 08:01:13;;;;;;;11.30;6.18;;;7.10;99.90;;;;;;5099624;28;20043;-73
2023/01/30 08:03:39;;;;;;;13.15;5.32;;;7.10;99.90;;;;;;5097769;27;20040;-74
2023/01/30 08:06:05;;;;;;;17.20;5.80;;;7.10;99.90;;;;;;5071447;28;20055;-72
2023/01/30 08:08:31;;;;;;;15.75;5.55;;;7.10;99.90;;;;;;5075171;28;20168;-73
2023/01/30 08:10:57;;;;;;;19.73;6.13;;;7.10;99.90;;;;;;5098057;28;20295;-72
2023/01/30 08:13:22;;;;;;;14.85;6.38;;;7.20;99.90;;;;;;5100198;27;20419;-72
2023/01/30 08:15:48;;;;;;;13.75;5.22;;;7.20;99.90;;;;;;5096041;28;20051;-72
2023/01/30 08:18:14;;;;;;;23.05;7.00;;;7.20;99.90;;;;;;5090905;28;20052;-73
2023/01/30 08:20:41;;;;;;;19.58;7.07;;;7.20;99.90;;;;;;5089905;28;20101;-71
2023/01/30 08:23:07;;;;;;;14.40;5.60;;;7.30;99.90;;;;;;5094202;28;20329;-73
2023/01/30 08:25:34;;;;;;;15.85;5.43;;;7.30;99.90;;;;;;5088926;28;20120;-73
2023/01/30 08:28:00;;;;;;;22.42;5.70;;;7.30;99.90;;;;;;5092753;28;20198;-75
2023/01/30 08:30:27;;;;;;;19.92;6.93;;;7.40;99.90;;;;;;5091207;28;20560;-73
2023/01/30 08:32:53;;;;;;;18.33;6.45;;;7.50;99.90;;;;;;5097071;28;20126;-71
2023/01/30 08:35:18;;;;;;;15.20;6.32;;;7.50;99.90;;;;;;5088378;28;20055;-73
2023/01/30 08:37:44;;;;;;;18.85;6.25;;;7.50;99.90;;;;;;5097886;28;20598;-74
2023/01/30 08:40:10;;;;;;;21.08;5.50;;;7.50;99.90;;;;;;5093542;28;20524;-72
2023/01/30 08:42:36;;;;;;;17.98;5.75;;;7.50;99.90;;;;;;5072108;28;20552;-71
2023/01/30 08:45:02;;;;;;;19.63;6.35;;;7.40;99.90;;;;;;5097652;28;20088;-72
2023/01/30 08:47:28;;;;;;;21.05;5.63;;;7.40;99.90;;;;;;5094270;28;20131;-73
2023/01/30 08:49:54;;;;;;;11.95;5.20;;;7.40;99.90;;;;;;5098992;28;20108;-71
2023/01/30 08:52:20;;;;;;;13.70;5.68;;;7.40;99.90;;;;;;5098321;27;20545;-75
2023/01/30 08:54:46;;;;;;;21.73;6.43;;;7.40;99.90;;;;;;5096223;28;20616;-73
2023/01/30 08:57:13;;;;;;;14.90;4.85;;;7.50;99.90;;;;;;5089294;28;20142;-71
2023/01/30 08:59:39;;;;;;;19.55;5.20;;;7.50;99.90;;;;;;5093592;28;20039;-73
2023/01/30 09:02:07;;;;;;;13.82;5.70;;;7.00;99.90;;;;;;5100810;28;20058;-74
2023/01/30 09:04:33;;;;;;;18.45;5.07;;;7.50;99.90;;;;;;5086996;28;20108;-72
2023/01/30 09:06:59;;;;;;;11.80;6.43;;;7.60;99.90;;;;;;5096208;28;20826;-72
2023/01/30 09:09:24;;;;;;;11.15;5.07;;;7.80;99.90;;;;;;5094446;28;20047;-71
2023/01/30 09:11:50;;;;;;;15.80;5.80;;;7.80;99.90;;;;;;5084306;28;20051;-73
2023/01/30 09:14:18;;;;;;;16.45;5.80;;;7.90;99.90;;;;;;5099532;28;20066;-72
2023/01/30 09:16:54;;;;;;;13.05;6.03;;;7.90;99.90;;;;;;5088187;28;20063;-73
2023/01/30 09:19:21;;;;;;;15.85;6.18;;;7.90;99.90;;;;;;5093633;28;20052;-73
2023/01/30 09:21:52;;;;;;;20.40;5.05;;;8.00;99.90;;;;;;5099298;28;20090;-75
2023/01/30 09:24:18;;;;;;;13.70;5.22;;;8.00;99.90;;;;;;5098329;28;20056;-72
2023/01/30 09:26:44;;;;;;;17.98;7.15;;;8.00;99.90;;;;;;5098540;28;20058;-72
2023/01/30 09:29:13;;;;;;;15.18;5.28;;;8.00;99.90;;;;;;5097576;28;20048;-74
2023/01/30 09:31:39;;;;;;;17.70;6.47;;;8.00;99.90;;;;;;5098556;28;20043;-74
2023/01/30 09:34:06;;;;;;;14.05;5.82;;;7.90;99.90;;;;;;5097562;28;20054;-72
2023/01/30 09:36:32;;;;;;;11.73;5.45;;;8.00;99.90;;;;;;5098879;28;20104;-74
2023/01/30 09:38:58;;;;;;;16.60;5.50;;;8.00;99.90;;;;;;5098615;28;20043;-74
2023/01/30 09:41:48;;;;;;;11.68;4.80;;;8.00;99.90;;;;;;5094731;28;20040;-74
2023/01/30 09:44:52;;;;;;;11.32;4.75;;;8.00;99.90;;;;;;5094883;28;20058;-72
2023/01/30 09:47:23;;;;;;;;;;;8.00;99.90;;;;;;5062813;28;20062;-73
2023/01/30 09:49:49;;;;;;;16.45;5.28;;;7.90;99.90;;;;;;5095839;28;19951;-75
2023/01/30 09:52:57;;;;;;;15.02;5.57;;;7.80;99.90;;;;;;5096832;28;20058;-72
2023/01/30 09:55:28;;;;;;;16.15;6.15;;;7.70;99.90;;;;;;5093584;28;20130;-72
2023/01/30 09:57:57;;;;;;;12.23;5.25;;;7.70;99.90;;;;;;5095992;28;20052;-75
2023/01/30 10:00:41;;;;;;;12.10;5.55;;;7.70;99.90;;;;;;5097574;28;20122;-72
2023/01/30 10:03:11;;;;;;;12.77;6.63;;;7.60;99.90;;;;;;5095678;28;20048;-72
2023/01/30 10:05:51;;;;;;;17.90;5.07;;;7.60;99.90;;;;;;5093252;28;20043;-74
2023/01/30 10:08:37;;;;;;;14.63;5.55;;;7.60;99.90;;;;;;5096595;28;20051;-70
2023/01/30 10:11:38;;;;;;;20.65;6.22;;;7.70;99.90;;;;;;5087211;28;20773;-71
2023/01/30 10:14:25;;;;;;;12.85;4.57;;;7.80;99.90;;;;;;5076657;28;20060;-72
2023/01/30 10:17:12;;;;;;;14.13;5.57;;;7.80;99.90;;;;;;5092709;28;20128;-75
2023/01/30 10:19:58;;;;;;;19.73;6.43;;;7.90;99.90;;;;;;5092807;28;20047;-75
2023/01/30 10:22:57;;;;;;;15.10;4.70;;;7.90;99.90;;;;;;5092012;28;20087;-76
2023/01/30 10:25:39;;;;;;;18.58;6.25;;;8.00;99.90;;;;;;5089650;28;20063;-73
2023/01/30 10:28:13;;;;;;;17.53;6.90;;;8.10;99.90;;;;;;5092651;28;20040;-71
2023/01/30 10:30:41;;;;;;;14.20;5.03;;;8.20;99.90;;;;;;5096193;28;20090;-71
2023/01/30 10:33:34;;;;;;;13.38;6.05;;;8.40;99.90;;;;;;5095204;27;20054;-72
2023/01/30 10:36:09;;;;;;;32.63;6.88;;;8.40;99.90;;;;;;5087487;28;20043;-70
2023/01/30 10:38:49;;;;;;;22.83;6.75;;;8.10;99.90;;;;;;5091780;28;20059;-71
2023/01/30 10:41:29;;;;;;;14.32;6.35;;;7.90;99.90;;;;;;5093174;28;20584;-74
2023/01/30 10:43:58;;;;;;;6.43;3.05;;;7.60;99.90;;;;;;5094898;28;20039;-70
2023/01/30 10:46:51;;;;;;;4.95;1.67;;;7.30;99.90;;;;;;5095999;28;20116;-70
2023/01/30 10:49:38;;;;;;;2.80;1.38;;;7.00;99.90;;;;;;5097205;28;20492;-69
2023/01/30 10:52:16;;;;;;;4.28;1.20;;;6.70;99.90;;;;;;5093616;28;20394;-72
2023/01/30 10:54:51;;;;;;;1.88;1.02;;;6.60;99.90;;;;;;5094151;28;20552;-72
2023/01/30 10:57:23;;;;;;;3.38;2.03;;;6.60;99.90;;;;;;5096419;28;20083;-72
2023/01/30 11:00:19;;;;;;;4.30;2.13;;;6.50;99.90;;;;;;5095564;28;20040;-73
2023/01/30 11:03:11;;;;;;;12.93;2.40;;;6.60;99.90;;;;;;5092046;28;20055;-73
2023/01/30 11:05:48;;;;;;;4.35;2.25;;;6.70;99.90;;;;;;5096741;28;20130;-72
2023/01/30 11:08:18;;;;;;;8.13;3.45;;;6.80;99.90;;;;;;5092808;28;20671;-73
2023/01/30 11:10:44;;;;;;;4.82;2.72;;;6.90;99.90;;;;;;5094310;28;20051;-72
2023/01/30 11:13:18;;;;;;;12.38;2.97;;;7.00;99.90;;;;;;5092040;28;20074;-73
2023/01/30 11:15:47;;;;;;;7.60;3.65;;;7.00;99.90;;;;;;5095828;28;20347;-73
2023/01/30 11:18:13;;;;;;;6.95;3.60;;;7.10;99.90;;;;;;5098927;28;20055;-70
2023/01/30 11:20:42;;;;;;;8.35;3.53;;;7.10;99.90;;;;;;5096978;28;20170;-74
2023/01/30 11:23:24;;;;;;;8.93;3.72;;;7.20;99.90;;;;;;5096113;28;20058;-75
2023/01/30 11:25:56;;;;;;;15.27;4.25;;;7.40;99.90;;;;;;5094902;28;20587;-74
2023/01/30 11:28:25;;;;;;;9.43;4.35;;;7.50;99.90;;;;;;5087444;28;20121;-75
2023/01/30 11:30:59;;;;;;;12.10;4.47;;;7.60;99.90;;;;;;5073398;28;20052;-81
2023/01/30 11:33:37;;;;;;;11.25;4.68;;;7.70;99.90;;;;;;5089693;28;20051;-74
2023/01/30 11:36:24;;;;;;;10.63;4.38;;;7.90;99.90;;;;;;5096608;28;20075;-73
2023/01/30 11:39:02;;;;;;;8.80;3.85;;;8.00;99.90;;;;;;5094138;28;21067;-73
2023/01/30 11:41:29;;;;;;;8.95;3.70;;;8.00;99.90;;;;;;5093617;28;20059;-73
2023/01/30 11:44:03;;;;;;;11.77;4.03;;;7.90;99.90;;;;;;5096629;28;20051;-73
2023/01/30 11:46:32;;;;;;;11.45;3.58;;;7.90;99.90;;;;;;5091435;28;20128;-73
2023/01/30 11:49:03;;;;;;;13.25;4.40;;;8.00;99.90;;;;;;5095089;28;20055;-73
2023/01/30 11:51:31;;;;;;;11.95;3.72;;;8.10;99.90;;;;;;5094013;28;20055;-71
2023/01/30 11:54:19;;;;;;;13.20;3.55;;;8.10;99.90;;;;;;5090863;28;20054;-73
2023/01/30 11:56:52;;;;;;;8.88;3.38;;;8.20;99.90;;;;;;5095404;28;20043;-75
2023/01/30 11:59:30;;;;;;;;;;;8.20;99.90;;;;;;5096456;28;20759;-74
2023/01/30 12:02:15;;;;;;;4.85;3.70;;;8.20;99.90;;;;;;5079076;28;20007;-74
2023/01/30 12:04:46;;;;;;;8.57;3.28;;;8.20;99.90;;;;;;5097366;28;20093;-73
2023/01/30 12:07:23;;;;;;;10.35;3.90;;;8.20;99.90;;;;;;5085980;28;20055;-74
2023/01/30 12:09:50;;;;;;;12.30;4.10;;;8.20;99.90;;;;;;5078913;28;20071;-77
2023/01/30 12:12:42;;;;;;;10.07;3.72;;;8.20;99.90;;;;;;5090201;28;20039;-72
2023/01/30 12:15:32;;;;;;;6.97;3.10;;;8.20;99.90;;;;;;5095566;28;20048;-73
2023/01/30 12:18:09;;;;;;;5.88;2.92;;;8.20;99.90;;;;;;5093201;28;20489;-73
2023/01/30 12:20:47;;;;;;;6.75;3.35;;;8.10;99.90;;;;;;5094678;28;20656;-74
2023/01/30 12:23:20;;;;;;;7.70;3.17;;;8.00;99.90;;;;;;5112342;27;20071;-74
2023/01/30 12:26:13;;;;;;;14.55;3.55;;;8.00;99.90;;;;;;5094354;28;20120;-75
2023/01/30 12:29:02;;;;;;;16.50;4.00;;;8.00;99.90;;;;;;5093135;28;20043;-75
2023/01/30 12:31:34;;;;;;;10.10;3.55;;;8.10;99.90;;;;;;5092787;28;20051;-74
2023/01/30 12:34:01;;;;;;;12.43;4.13;;;8.10;99.90;;;;;;5080340;28;20498;-74
2023/01/30 12:36:52;;;;;;;13.27;4.05;;;8.10;99.90;;;;;;5088326;28;20127;-74
2023/01/30 12:39:32;;;;;;;12.07;3.72;;;8.20;99.90;;;;;;5083139;28;20090;-74
2023/01/30 12:42:17;;;;;;;14.63;4.95;;;8.30;99.90;;;;;;5081473;28;20519;-76
2023/01/30 12:44:48;;;;;;;11.43;5.35;;;8.40;99.90;;;;;;5092361;28;20043;-75
2023/01/30 12:47:17;;;;;;;12.88;5.13;;;8.50;99.90;;;;;;5096205;28;20991;-75
2023/01/30 12:49:53;;;;;;;11.05;4.57;;;8.90;99.90;;;;;;5092597;28;20852;-75
2023/01/30 12:52:47;;;;;;;17.05;6.20;;;8.40;99.90;;;;;;5094652;28;20572;-73
2023/01/30 12:55:25;;;;;;;13.00;5.55;;;8.30;99.90;;;;;;5093246;28;20089;-74
2023/01/30 12:58:02;;;;;;;13.15;5.28;;;8.30;99.90;;;;;;5092576;28;20055;-75
2023/01/30 13:01:04;;;;;;;9.88;3.67;;;8.30;99.90;;;;;;5093081;28;20050;-76
2023/01/30 13:03:44;;;;;;;15.60;4.55;;;8.30;99.90;;;;;;5094412;28;20051;-75
2023/01/30 13:06:43;;;;;;;10.48;4.10;;;8.40;99.90;;;;;;5091207;28;20442;-73
2023/01/30 13:09:36;;;;;;;11.48;4.35;;;8.40;99.90;;;;;;5091848;28;20055;-75
2023/01/30 13:12:44;;;;;;;11.95;4.13;;;8.40;99.90;;;;;;5092933;28;20872;-74
2023/01/30 13:15:28;;;;;;;8.55;4.00;;;8.40;99.90;;;;;;5002816;28;20045;-73